This is the latest recevied weather packets stored in our database for station/object KM5R. If no packets are shown the sender has not sent any weather packets the latest 10 day(s).
| Time | Temp. | Humidity | Pressure | Rain* | Wind** | Luminosity | Snow |
|---|---|---|---|---|---|---|---|
| 1778088272 | 11.67° C | 86% | 1016.1 hPa | 0 mm | - | 129 W/m² | - |
| 1778087060 | 11.11° C | 87% | 1016 hPa | 0 mm | - | 106 W/m² | - |
| 1778086759 | 11.11° C | 87% | 1016.1 hPa | 0 mm | - | 85 W/m² | - |
| 1778085548 | 11.11° C | 87% | 1015.9 hPa | 0 mm | - | 111 W/m² | - |
| 1778085241 | 11.67° C | 87% | 1016.1 hPa | 0 mm | - | 81 W/m² | - |
| 1778084936 | 11.11° C | 87% | 1016.1 hPa | 0 mm | - | 87 W/m² | - |
| 1778083727 | 11.11° C | 87% | 1014.3 hPa | 0 mm | - | 140 W/m² | - |
| 1778083424 | 11.67° C | 87% | 1014.3 hPa | 0 mm | - | 121 W/m² | - |
| 1778080178 | 11.11° C | 85% | 1015.3 hPa | 0 mm | - | 25 W/m² | - |
| 1778078056 | 11.67° C | 83% | 1015.6 hPa | 0 mm | - | 13 W/m² | - |
| 1778077150 | 12.22° C | 82% | 1015.9 hPa | 0 mm | - | 4 W/m² | - |
| 1778076848 | 12.22° C | 81% | 1016 hPa | 0 mm | - | 9 W/m² | - |
| 1778076546 | 12.78° C | 81% | 1016.4 hPa | 0 mm | - | 6 W/m² | - |
| 1778075636 | 12.78° C | 81% | 1015.8 hPa | 0 mm | - | 8 W/m² | - |
| 1778074726 | 13.33° C | 82% | 1014.6 hPa | 0 mm | - | 13 W/m² | - |
| 1778074422 | 13.33° C | 82% | 1014.4 hPa | 0 mm | - | 13 W/m² | - |
| 1778074119 | 13.33° C | 82% | 1014.4 hPa | 0 mm | - | 12 W/m² | - |
| 1778073210 | 13.89° C | 82% | 1014 hPa | 0 mm | - | 13 W/m² | - |
| 1778072908 | 13.89° C | 82% | 1014 hPa | 0 mm | - | 16 W/m² | - |
| 1778072604 | 13.89° C | 82% | 1013.8 hPa | 0 mm | - | 16 W/m² | - |
| 1778070791 | 14.44° C | 80% | 1013.1 hPa | 0 mm | - | 21 W/m² | - |
| 1778069883 | 15° C | 80% | 1013.3 hPa | 0 mm | - | 16 W/m² | - |
| 1778069579 | 15° C | 80% | 1013 hPa | 0 mm | - | 17 W/m² | - |
| 1778069276 | 15° C | 79% | 1013.1 hPa | 0 mm | - | 6 W/m² | - |
| 1778068974 | 15° C | 79% | 1012.9 hPa | 0 mm | - | 3 W/m² | - |
* Rain latest hour (hover to see other rain measurements)
** Current wind speed in m/s (hover to see current wind gust speed)